createdAt,value
2022-12-19T00:01:36.388Z,29.15
2022-12-19T00:04:08.423Z,27.33
2022-12-19T00:06:36.964Z,28.35
2022-12-19T00:09:04.722Z,26.70
2022-12-19T00:11:32.415Z,29.65
2022-12-19T00:13:59.611Z,29.10
2022-12-19T00:16:29.112Z,29.48
2022-12-19T00:18:59.111Z,29.98
2022-12-19T00:21:31.395Z,29.80
2022-12-19T00:24:02.813Z,29.63
2022-12-19T00:26:31.627Z,29.35
2022-12-19T00:29:00.573Z,29.38
2022-12-19T00:31:29.718Z,30.63
2022-12-19T00:33:57.004Z,29.90
2022-12-19T00:36:32.809Z,30.92
2022-12-19T00:39:01.148Z,31.50
2022-12-19T00:41:31.098Z,30.17
2022-12-19T00:44:03.783Z,31.05
2022-12-19T00:46:32.652Z,32.05
2022-12-19T00:49:00.015Z,31.50
2022-12-19T00:51:30.092Z,32.50
2022-12-19T00:53:58.188Z,31.50
2022-12-19T00:56:28.042Z,33.25
2022-12-19T00:58:55.422Z,30.40
2022-12-19T01:01:28.175Z,31.75
2022-12-19T01:06:43.612Z,31.92
2022-12-19T01:09:12.432Z,28.23
2022-12-19T01:11:57.711Z,32.97
2022-12-19T01:14:24.967Z,30.50
2022-12-19T01:16:52.435Z,31.85
2022-12-19T01:19:19.912Z,30.13
2022-12-19T01:21:46.607Z,31.88
2022-12-19T01:24:13.659Z,29.60
2022-12-19T01:26:42.541Z,29.40
2022-12-19T01:29:09.209Z,30.38
2022-12-19T01:31:36.091Z,28.85
2022-12-19T01:34:02.976Z,30.70
2022-12-19T01:36:29.722Z,29.08
2022-12-19T01:38:57.755Z,29.40
2022-12-19T01:41:27.256Z,28.87
2022-12-19T01:44:00.564Z,30.10
2022-12-19T01:46:35.542Z,28.65
2022-12-19T01:49:04.437Z,28.17
2022-12-19T01:51:39.732Z,28.77
2022-12-19T01:54:09.997Z,28.50
2022-12-19T01:56:40.169Z,27.77
2022-12-19T01:59:13.584Z,28.30
2022-12-19T02:01:51.669Z,27.23
2022-12-19T02:04:23.000Z,29.40
2022-12-19T02:06:51.373Z,26.40
2022-12-19T02:09:18.903Z,29.30
2022-12-19T02:11:47.408Z,27.88
2022-12-19T02:14:14.304Z,28.92
2022-12-19T02:17:06.896Z,29.05
2022-12-19T02:19:42.831Z,26.02
2022-12-19T02:22:30.877Z,26.17
2022-12-19T02:25:10.044Z,27.70
2022-12-19T02:27:51.716Z,28.40
2022-12-19T02:30:42.758Z,27.10
2022-12-19T02:33:13.099Z,20.38
2022-12-19T02:35:54.563Z,27.10
2022-12-19T02:38:28.787Z,27.77
2022-12-19T02:41:10.075Z,26.80
2022-12-19T02:43:42.306Z,27.83
2022-12-19T02:46:11.403Z,28.52
2022-12-19T02:48:40.125Z,26.05
2022-12-19T02:51:07.388Z,28.80
2022-12-19T02:53:37.424Z,27.40
2022-12-19T02:56:26.086Z,26.98
2022-12-19T02:59:08.814Z,29.65
2022-12-19T03:02:04.689Z,28.67
2022-12-19T03:04:57.377Z,27.30
2022-12-19T03:10:26.226Z,27.20
2022-12-19T03:13:33.809Z,27.73
2022-12-19T03:16:03.144Z,26.83
2022-12-19T03:18:32.770Z,27.85
2022-12-19T03:21:25.360Z,26.52
2022-12-19T03:23:54.343Z,27.05
2022-12-19T03:26:23.461Z,27.17
2022-12-19T03:28:56.115Z,27.33
2022-12-19T03:31:26.770Z,27.35
2022-12-19T03:34:18.430Z,28.77
2022-12-19T03:39:14.656Z,27.02
2022-12-19T03:42:02.457Z,26.35
2022-12-19T03:44:33.545Z,27.42
2022-12-19T03:47:33.005Z,27.27
2022-12-19T03:49:59.689Z,29.58
2022-12-19T03:52:32.250Z,27.58
2022-12-19T03:55:24.005Z,28.45
2022-12-19T03:57:56.372Z,31.17
2022-12-19T04:00:25.167Z,27.65
2022-12-19T04:02:55.354Z,28.50
2022-12-19T04:05:26.667Z,29.33
2022-12-19T04:07:58.893Z,30.27
2022-12-19T04:10:27.652Z,30.83
2022-12-19T04:13:03.745Z,30.30
2022-12-19T04:15:53.968Z,29.98
2022-12-19T04:18:21.169Z,31.35
2022-12-19T04:20:58.120Z,30.35
2022-12-19T04:23:33.311Z,29.77
2022-12-19T04:26:05.010Z,30.13
2022-12-19T04:28:38.176Z,30.50
2022-12-19T04:31:06.584Z,29.35
2022-12-19T04:33:33.373Z,30.63
2022-12-19T04:36:00.196Z,29.45
2022-12-19T04:38:27.408Z,30.98
2022-12-19T04:40:54.042Z,29.63
2022-12-19T04:43:20.695Z,29.63
2022-12-19T04:45:49.021Z,29.60
2022-12-19T04:48:18.327Z,30.48
2022-12-19T04:50:45.033Z,29.52
2022-12-19T04:53:11.675Z,29.30
2022-12-19T04:55:39.983Z,30.23
2022-12-19T04:58:07.238Z,29.27
2022-12-19T05:00:34.125Z,31.48
2022-12-19T05:03:00.853Z,30.83
2022-12-19T05:05:27.678Z,31.00
2022-12-19T05:07:58.745Z,30.58
2022-12-19T05:10:25.529Z,29.55
2022-12-19T05:12:54.176Z,28.95
2022-12-19T05:15:20.805Z,29.77
2022-12-19T05:17:47.456Z,28.05
2022-12-19T05:20:14.432Z,28.77
2022-12-19T05:22:41.076Z,30.00
2022-12-19T05:25:08.348Z,29.58
2022-12-19T05:27:35.065Z,29.65
2022-12-19T05:30:02.131Z,27.65
2022-12-19T05:32:33.684Z,28.15
2022-12-19T05:35:00.538Z,29.42
2022-12-19T05:37:27.214Z,29.52
2022-12-19T05:39:53.845Z,27.73
2022-12-19T05:42:20.550Z,26.35
2022-12-19T05:44:47.169Z,29.00
2022-12-19T05:47:13.829Z,27.90
2022-12-19T05:49:40.443Z,28.33
2022-12-19T05:52:07.150Z,28.02
2022-12-19T05:54:34.148Z,27.58
2022-12-19T05:57:01.442Z,25.98
2022-12-19T05:59:28.218Z,25.17
2022-12-19T06:01:55.125Z,25.10
2022-12-19T06:04:21.920Z,24.77
2022-12-19T06:06:48.832Z,26.10
2022-12-19T06:09:15.760Z,27.75
2022-12-19T06:11:42.407Z,25.70
2022-12-19T06:14:09.239Z,25.08
2022-12-19T06:16:35.948Z,24.85
2022-12-19T06:19:02.845Z,24.02
2022-12-19T06:21:29.550Z,22.95
2022-12-19T06:23:56.190Z,23.83
2022-12-19T06:26:23.033Z,23.27
2022-12-19T06:28:51.612Z,22.73
2022-12-19T06:31:20.170Z,22.98
2022-12-19T06:33:46.916Z,23.10
2022-12-19T06:36:23.301Z,23.50
2022-12-19T06:38:51.506Z,23.48
2022-12-19T06:41:37.166Z,23.98
2022-12-19T06:44:06.819Z,23.30
2022-12-19T06:46:34.440Z,22.65
2022-12-19T06:49:01.192Z,22.90
2022-12-19T06:51:28.223Z,23.10
2022-12-19T06:53:56.162Z,22.75
2022-12-19T06:56:23.523Z,21.38
2022-12-19T06:58:50.669Z,21.67
2022-12-19T07:01:32.289Z,21.52
2022-12-19T07:03:59.612Z,20.35
2022-12-19T07:06:26.340Z,20.92
2022-12-19T07:08:53.306Z,21.10
2022-12-19T07:11:20.046Z,20.33
2022-12-19T07:13:46.912Z,20.35
2022-12-19T07:16:13.801Z,19.73
2022-12-19T07:18:41.788Z,20.95
2022-12-19T07:21:13.899Z,20.38
2022-12-19T07:23:41.045Z,18.00
2022-12-19T07:26:08.284Z,16.65
2022-12-19T07:28:35.549Z,18.92
2022-12-19T07:31:02.272Z,17.55
2022-12-19T07:33:28.974Z,17.10
2022-12-19T07:35:55.747Z,16.42
2022-12-19T07:38:22.411Z,16.63
2022-12-19T07:40:49.401Z,15.77
2022-12-19T07:43:16.391Z,15.57
2022-12-19T07:45:43.179Z,14.55
2022-12-19T07:48:10.190Z,14.35
2022-12-19T07:50:37.117Z,14.60
2022-12-19T07:53:03.845Z,14.55
2022-12-19T07:55:30.584Z,13.88
2022-12-19T07:57:57.324Z,13.93
2022-12-19T08:00:24.030Z,14.13
2022-12-19T08:02:51.090Z,13.40
2022-12-19T08:05:17.918Z,13.27
2022-12-19T08:07:44.998Z,13.43
2022-12-19T08:10:14.572Z,14.15
2022-12-19T08:12:41.771Z,12.98
2022-12-19T08:15:09.096Z,13.15
2022-12-19T08:17:38.664Z,14.60
2022-12-19T08:20:07.317Z,12.35
2022-12-19T08:22:34.643Z,13.18
2022-12-19T08:25:01.333Z,12.75
2022-12-19T08:27:28.070Z,12.20
2022-12-19T08:29:54.731Z,12.70
2022-12-19T08:32:22.000Z,12.38
2022-12-19T08:34:49.938Z,12.80
2022-12-19T08:37:17.389Z,12.43
2022-12-19T08:39:44.360Z,11.43
2022-12-19T08:42:11.093Z,13.50
2022-12-19T08:44:37.777Z,12.40
2022-12-19T08:47:04.795Z,12.48
2022-12-19T08:49:31.951Z,12.27
2022-12-19T08:51:58.661Z,11.90
2022-12-19T08:54:25.323Z,11.80
2022-12-19T08:56:51.959Z,12.88
2022-12-19T08:59:30.349Z,11.80
2022-12-19T09:01:58.741Z,13.85
2022-12-19T09:05:34.311Z,14.60
2022-12-19T09:07:15.337Z,13.10
2022-12-19T09:09:43.138Z,12.75
2022-12-19T09:12:09.813Z,16.27
2022-12-19T09:14:36.722Z,13.15
2022-12-19T09:17:04.613Z,11.63
2022-12-19T09:19:32.231Z,12.52
2022-12-19T09:21:59.225Z,12.07
2022-12-19T09:24:26.226Z,11.82
2022-12-19T09:26:52.944Z,12.13
2022-12-19T09:29:21.773Z,10.77
2022-12-19T09:31:55.917Z,9.85
2022-12-19T09:34:36.736Z,11.30
2022-12-19T09:37:16.054Z,10.55
2022-12-19T09:39:45.484Z,9.77
2022-12-19T09:42:41.233Z,9.75
2022-12-19T09:45:31.991Z,10.38
2022-12-19T09:48:01.320Z,10.23
2022-12-19T09:50:51.670Z,9.32
2022-12-19T09:53:28.961Z,9.93
2022-12-19T09:55:59.553Z,9.77
2022-12-19T09:58:39.282Z,8.80
2022-12-19T10:01:14.770Z,9.20
2022-12-19T10:03:50.363Z,8.98
2022-12-19T10:07:11.128Z,8.65
2022-12-19T10:10:58.895Z,8.55
2022-12-19T10:12:52.959Z,8.32
2022-12-19T10:16:00.979Z,7.88
2022-12-19T10:18:56.404Z,8.73
2022-12-19T10:22:15.826Z,7.20
2022-12-19T10:24:41.347Z,7.70
2022-12-19T10:27:59.446Z,7.65
2022-12-19T10:30:31.738Z,6.90
2022-12-19T10:33:26.107Z,7.03
2022-12-19T10:36:01.815Z,6.05
2022-12-19T10:38:39.434Z,5.85
2022-12-19T10:41:32.475Z,5.80
2022-12-19T10:44:10.254Z,5.38
2022-12-19T10:46:43.040Z,5.20
2022-12-19T10:49:22.204Z,5.30
2022-12-19T10:52:00.896Z,5.95
2022-12-19T10:54:43.681Z,4.40
2022-12-19T10:57:19.797Z,5.00
2022-12-19T11:00:13.417Z,4.32
2022-12-19T11:02:47.548Z,5.18
2022-12-19T11:05:22.758Z,4.15
2022-12-19T11:08:07.599Z,4.43
2022-12-19T11:11:59.729Z,4.25
2022-12-19T11:18:56.752Z,4.05
2022-12-19T11:23:42.767Z,4.20
2022-12-19T11:29:26.119Z,3.83
2022-12-19T11:29:44.966Z,4.30
2022-12-19T11:30:05.875Z,4.30
2022-12-19T11:30:36.480Z,6.38
2022-12-19T11:32:31.896Z,7.45
2022-12-19T11:34:23.637Z,5.75
2022-12-19T11:37:14.958Z,3.92
2022-12-19T11:39:47.271Z,4.57
2022-12-19T11:42:24.658Z,4.20
2022-12-19T11:44:58.842Z,4.07
2022-12-19T11:47:45.640Z,4.35
2022-12-19T11:50:29.061Z,4.70
2022-12-19T11:53:18.342Z,4.03
2022-12-19T11:55:58.925Z,3.70
2022-12-19T11:58:31.295Z,3.90
2022-12-19T12:01:08.006Z,3.70
2022-12-19T12:03:55.884Z,3.55
2022-12-19T12:06:47.656Z,3.05
2022-12-19T12:15:01.750Z,3.97
2022-12-19T12:16:01.773Z,4.05
2022-12-19T12:29:13.866Z,4.50
2022-12-19T12:31:04.850Z,4.50
2022-12-19T12:31:07.084Z,4.00
2022-12-19T12:31:11.914Z,3.10
2022-12-19T12:31:50.280Z,3.00
2022-12-19T12:35:40.777Z,2.75
2022-12-19T12:40:34.451Z,3.30
2022-12-19T12:43:25.518Z,6.53
2022-12-19T12:45:52.301Z,9.60
2022-12-19T12:48:19.083Z,12.88
2022-12-19T12:50:54.650Z,13.38
2022-12-19T12:53:26.884Z,13.52
2022-12-19T12:55:57.711Z,13.68
2022-12-19T12:58:50.200Z,14.90
2022-12-19T13:01:29.904Z,15.38
2022-12-19T13:04:01.570Z,14.27
2022-12-19T13:06:39.375Z,14.73
2022-12-19T13:09:25.735Z,13.82
2022-12-19T13:12:19.340Z,14.80
2022-12-19T13:14:51.141Z,13.65
2022-12-19T13:17:33.006Z,12.82
2022-12-19T13:22:32.254Z,12.75
2022-12-19T13:25:00.535Z,13.32
2022-12-19T13:27:35.056Z,12.32
2022-12-19T13:30:12.390Z,11.82
2022-12-19T13:32:39.034Z,11.77
2022-12-19T13:35:57.638Z,11.35
2022-12-19T13:40:00.501Z,11.63
2022-12-19T13:41:49.166Z,11.15
2022-12-19T13:44:21.516Z,11.80
2022-12-19T13:46:48.684Z,10.38
2022-12-19T13:49:25.465Z,10.05
2022-12-19T13:51:57.707Z,9.55
2022-12-19T13:54:32.760Z,9.35
2022-12-19T13:57:03.282Z,9.77
2022-12-19T13:59:38.863Z,10.48
2022-12-19T14:02:25.872Z,8.90
2022-12-19T14:04:52.859Z,8.98
2022-12-19T14:07:37.512Z,8.82
2022-12-19T14:11:38.474Z,7.93
2022-12-19T14:13:52.943Z,8.67
2022-12-19T14:16:02.752Z,7.85
2022-12-19T14:18:44.333Z,9.23
2022-12-19T14:22:03.625Z,8.95
2022-12-19T14:24:21.157Z,10.20
2022-12-19T14:28:23.895Z,9.35
2022-12-19T14:30:30.293Z,10.07
2022-12-19T14:33:45.560Z,10.23
2022-12-19T14:36:06.295Z,9.75
2022-12-19T14:39:20.965Z,8.68
2022-12-19T14:41:46.973Z,9.73
2022-12-19T14:53:33.987Z,8.88
2022-12-19T14:53:51.204Z,8.85
2022-12-19T14:54:21.864Z,9.48
2022-12-19T14:54:55.255Z,9.88
2022-12-19T14:56:13.044Z,10.05
2022-12-19T14:58:53.098Z,11.32
2022-12-19T15:01:37.171Z,11.02
2022-12-19T15:04:48.411Z,10.32
2022-12-19T15:07:07.385Z,10.00
2022-12-19T15:11:09.052Z,11.18
2022-12-19T15:14:52.996Z,9.88
2022-12-19T15:16:00.329Z,10.07
2022-12-19T15:18:39.929Z,9.55
2022-12-19T15:21:12.583Z,9.20
2022-12-19T15:23:39.709Z,9.40
2022-12-19T15:26:25.856Z,9.13
2022-12-19T15:28:56.183Z,8.20
2022-12-19T15:31:29.566Z,7.43
2022-12-19T15:36:43.281Z,5.97
2022-12-19T15:39:09.935Z,6.03
2022-12-19T15:41:36.733Z,5.43
2022-12-19T15:44:11.012Z,4.28
2022-12-19T15:46:42.825Z,4.60
2022-12-19T15:49:21.198Z,4.57
2022-12-19T15:51:48.217Z,4.18
2022-12-19T15:54:47.831Z,4.18
2022-12-19T15:57:02.052Z,3.50
2022-12-19T15:59:41.998Z,3.75
2022-12-19T16:02:22.538Z,3.88
2022-12-19T16:04:50.895Z,4.13
2022-12-19T16:07:20.862Z,3.40
2022-12-19T16:09:49.304Z,2.80
2022-12-19T16:12:24.833Z,3.15
2022-12-19T16:14:59.012Z,3.70
2022-12-19T16:17:27.058Z,3.58
2022-12-19T16:19:53.735Z,3.97
2022-12-19T16:22:23.019Z,4.05
2022-12-19T16:24:50.992Z,4.60
2022-12-19T16:27:26.821Z,6.10
2022-12-19T16:29:54.318Z,9.40
2022-12-19T16:32:25.750Z,7.75
2022-12-19T16:34:53.176Z,5.05
2022-12-19T16:37:20.341Z,4.32
2022-12-19T16:39:47.115Z,5.72
2022-12-19T16:42:17.742Z,4.88
2022-12-19T16:44:48.201Z,4.85
2022-12-19T16:47:17.436Z,3.75
2022-12-19T16:49:44.919Z,4.30
2022-12-19T16:52:12.334Z,4.32
2022-12-19T16:54:39.472Z,4.28
2022-12-19T16:57:15.632Z,4.82
2022-12-19T16:59:42.395Z,3.40
2022-12-19T17:02:42.849Z,4.70
2022-12-19T17:05:30.952Z,6.00
2022-12-19T17:07:58.548Z,4.90
2022-12-19T17:10:31.053Z,4.85
2022-12-19T17:12:59.004Z,4.97
2022-12-19T17:15:28.144Z,4.30
2022-12-19T17:17:57.920Z,3.83
2022-12-19T17:20:26.844Z,4.57
2022-12-19T17:22:53.686Z,4.85
2022-12-19T17:25:25.488Z,3.92
2022-12-19T17:27:53.543Z,4.45
2022-12-19T17:30:21.162Z,4.88
2022-12-19T17:32:51.155Z,4.65
2022-12-19T17:35:27.283Z,4.38
2022-12-19T17:37:56.573Z,4.60
2022-12-19T17:40:26.246Z,4.40
2022-12-19T17:42:53.316Z,3.50
2022-12-19T17:45:22.160Z,5.18
2022-12-19T17:47:49.420Z,4.35
2022-12-19T17:50:24.440Z,5.18
2022-12-19T17:52:51.637Z,4.80
2022-12-19T17:55:24.045Z,4.90
2022-12-19T17:57:51.287Z,4.13
2022-12-19T18:00:23.879Z,5.60
2022-12-19T18:02:55.264Z,6.88
2022-12-19T18:05:25.776Z,6.97
2022-12-19T18:07:53.219Z,7.40
2022-12-19T18:10:25.650Z,6.32
2022-12-19T18:12:52.537Z,6.95
2022-12-19T18:15:21.071Z,8.15
2022-12-19T18:17:49.081Z,7.30
2022-12-19T18:20:31.909Z,6.50
2022-12-19T18:23:00.029Z,3.95
2022-12-19T18:25:30.780Z,4.00
2022-12-19T18:27:58.315Z,4.07
2022-12-19T18:30:25.572Z,3.22
2022-12-19T18:32:57.386Z,3.92
2022-12-19T18:38:00.813Z,3.05
2022-12-19T18:40:31.558Z,2.75
2022-12-19T18:42:58.888Z,2.47
2022-12-19T18:45:32.083Z,2.53
2022-12-19T18:48:00.566Z,2.60
2022-12-19T18:50:28.393Z,2.72
2022-12-19T18:52:55.642Z,2.70
2022-12-19T18:55:24.797Z,3.15
2022-12-19T18:57:51.574Z,3.10
2022-12-19T19:00:20.974Z,2.60
2022-12-19T19:03:01.709Z,2.72
2022-12-19T19:05:31.292Z,2.67
2022-12-19T19:08:11.293Z,2.55
2022-12-19T19:10:37.967Z,3.10
2022-12-19T19:13:10.927Z,3.53
2022-12-19T19:15:46.414Z,2.35
2022-12-19T19:18:13.142Z,2.70
2022-12-19T19:20:43.380Z,2.63
2022-12-19T19:23:13.114Z,2.67
2022-12-19T19:25:40.243Z,2.38
2022-12-19T19:28:07.833Z,2.80
2022-12-19T19:30:36.985Z,2.75
2022-12-19T19:33:13.949Z,2.30
2022-12-19T19:35:45.040Z,2.58
2022-12-19T19:38:13.096Z,2.97
2022-12-19T19:40:39.815Z,2.13
2022-12-19T19:43:06.975Z,2.60
2022-12-19T19:45:41.184Z,1.95
2022-12-19T19:48:09.806Z,2.55
2022-12-19T19:50:36.802Z,2.63
2022-12-19T19:53:03.577Z,2.40
2022-12-19T19:55:30.258Z,2.20
2022-12-19T19:57:56.945Z,2.28
2022-12-19T20:00:23.715Z,2.25
2022-12-19T20:02:50.814Z,2.53
2022-12-19T20:05:17.933Z,2.10
2022-12-19T20:07:45.086Z,2.00
2022-12-19T20:10:12.247Z,2.08
2022-12-19T20:12:39.508Z,1.95
2022-12-19T20:15:06.845Z,2.58
2022-12-19T20:17:33.855Z,2.15
2022-12-19T20:20:00.590Z,2.10
2022-12-19T20:22:29.246Z,2.42
2022-12-19T20:24:56.357Z,1.63
2022-12-19T20:27:23.171Z,2.10
2022-12-19T20:29:50.047Z,2.67
2022-12-19T20:32:16.648Z,2.35
2022-12-19T20:34:43.329Z,2.25
2022-12-19T20:37:10.006Z,2.03
2022-12-19T20:39:36.658Z,2.53
2022-12-19T20:42:03.630Z,3.38
2022-12-19T20:44:30.288Z,1.90
2022-12-19T20:46:57.769Z,2.05
2022-12-19T20:49:24.559Z,2.22
2022-12-19T20:51:51.363Z,2.53
2022-12-19T20:54:18.329Z,2.40
2022-12-19T20:56:45.368Z,2.05
2022-12-19T20:59:12.253Z,2.30
2022-12-19T21:01:39.198Z,2.00
2022-12-19T21:04:06.321Z,1.90
2022-12-19T21:06:33.296Z,2.25
2022-12-19T21:08:59.962Z,2.13
2022-12-19T21:11:26.721Z,2.38
2022-12-19T21:13:53.612Z,2.67
2022-12-19T21:16:22.495Z,2.47
2022-12-19T21:18:51.076Z,2.00
2022-12-19T21:21:25.922Z,2.45
2022-12-19T21:23:54.182Z,2.45
2022-12-19T21:26:22.655Z,2.22
2022-12-19T21:28:49.553Z,2.28
2022-12-19T21:31:28.501Z,2.37
2022-12-19T21:33:58.209Z,2.20
2022-12-19T21:36:26.570Z,5.13
2022-12-19T21:38:56.648Z,3.67
2022-12-19T21:41:23.673Z,2.22
2022-12-19T21:43:53.614Z,1.77
2022-12-19T21:46:23.027Z,2.20
2022-12-19T21:48:51.813Z,2.20
2022-12-19T21:51:21.563Z,2.20
2022-12-19T21:53:48.941Z,2.03
2022-12-19T21:56:26.305Z,2.10
2022-12-19T21:58:55.920Z,1.95
2022-12-19T22:01:22.972Z,2.10
2022-12-19T22:03:51.071Z,2.63
2022-12-19T22:06:27.844Z,2.33
2022-12-19T22:08:56.600Z,2.20
2022-12-19T22:11:24.230Z,1.73
2022-12-19T22:13:51.437Z,1.85
2022-12-19T22:16:18.231Z,1.55
2022-12-19T22:18:45.695Z,1.80
2022-12-19T22:21:14.618Z,2.15
2022-12-19T22:23:42.273Z,2.03
2022-12-19T22:26:15.221Z,2.20
2022-12-19T22:28:44.542Z,2.00
2022-12-19T22:31:23.146Z,2.05
2022-12-19T22:33:56.491Z,2.05
2022-12-19T22:36:28.381Z,1.85
2022-12-19T22:38:57.028Z,2.33
2022-12-19T22:41:24.212Z,2.47
2022-12-19T22:43:51.733Z,1.95
2022-12-19T22:46:20.193Z,1.88
2022-12-19T22:48:49.337Z,1.55
2022-12-19T22:51:18.168Z,1.60
2022-12-19T22:53:46.217Z,2.35
2022-12-19T22:56:18.149Z,2.17
2022-12-19T22:58:50.133Z,1.65
2022-12-19T23:01:19.758Z,2.00
2022-12-19T23:03:48.393Z,1.98
2022-12-19T23:06:16.263Z,1.65
2022-12-19T23:08:43.508Z,2.38
2022-12-19T23:11:16.976Z,1.67
2022-12-19T23:13:44.985Z,2.30
2022-12-19T23:16:13.078Z,1.92
2022-12-19T23:18:40.941Z,2.08
2022-12-19T23:21:09.837Z,1.75
2022-12-19T23:23:42.355Z,1.70
2022-12-19T23:26:21.392Z,1.90
2022-12-19T23:29:02.036Z,1.67
2022-12-19T23:31:29.440Z,1.70
2022-12-19T23:33:56.740Z,1.50
2022-12-19T23:37:00.435Z,1.50
2022-12-19T23:39:12.378Z,1.38
2022-12-19T23:41:39.292Z,1.50
2022-12-19T23:44:06.359Z,1.50
2022-12-19T23:46:33.040Z,1.63
2022-12-19T23:48:59.685Z,1.58
2022-12-19T23:51:27.495Z,1.80
2022-12-19T23:53:55.850Z,1.55
2022-12-19T23:56:25.773Z,1.90
2022-12-19T23:58:52.870Z,1.63
